sensor_id;sensor_type;location;lat;lon;timestamp;P1;durP1;ratioP1;P2;durP2;ratioP2
16308;SDS011;8263;48.880;9.276;2023-03-24T00:01:41;115.40;;;107.70;;
16308;SDS011;8263;48.880;9.276;2023-03-24T00:04:07;115.78;;;108.07;;
16308;SDS011;8263;48.880;9.276;2023-03-24T00:06:35;115.82;;;108.13;;
16308;SDS011;8263;48.880;9.276;2023-03-24T00:09:02;116.13;;;108.32;;
16308;SDS011;8263;48.880;9.276;2023-03-24T00:11:30;116.00;;;108.22;;
16308;SDS011;8263;48.880;9.276;2023-03-24T00:13:59;114.18;;;106.40;;
16308;SDS011;8263;48.880;9.276;2023-03-24T00:16:25;114.18;;;106.60;;
16308;SDS011;8263;48.880;9.276;2023-03-24T00:18:51;115.70;;;107.97;;
16308;SDS011;8263;48.880;9.276;2023-03-24T00:21:18;116.43;;;108.63;;
16308;SDS011;8263;48.880;9.276;2023-03-24T00:23:49;116.57;;;108.80;;
16308;SDS011;8263;48.880;9.276;2023-03-24T00:26:18;116.00;;;108.30;;
16308;SDS011;8263;48.880;9.276;2023-03-24T00:28:46;116.95;;;109.15;;
16308;SDS011;8263;48.880;9.276;2023-03-24T00:31:13;114.47;;;106.88;;
16308;SDS011;8263;48.880;9.276;2023-03-24T00:33:41;116.28;;;108.47;;
16308;SDS011;8263;48.880;9.276;2023-03-24T00:36:08;115.85;;;108.15;;
16308;SDS011;8263;48.880;9.276;2023-03-24T00:38:37;116.97;;;109.10;;
16308;SDS011;8263;48.880;9.276;2023-03-24T00:41:06;114.18;;;106.53;;
16308;SDS011;8263;48.880;9.276;2023-03-24T00:43:34;115.38;;;107.68;;
16308;SDS011;8263;48.880;9.276;2023-03-24T00:46:02;115.30;;;107.60;;
16308;SDS011;8263;48.880;9.276;2023-03-24T00:48:30;115.78;;;108.07;;
16308;SDS011;8263;48.880;9.276;2023-03-24T00:50:56;117.88;;;109.95;;
16308;SDS011;8263;48.880;9.276;2023-03-24T00:53:23;118.32;;;110.32;;
16308;SDS011;8263;48.880;9.276;2023-03-24T00:55:53;115.03;;;107.38;;
16308;SDS011;8263;48.880;9.276;2023-03-24T00:58:22;117.50;;;109.60;;
16308;SDS011;8263;48.880;9.276;2023-03-24T01:00:50;115.32;;;107.63;;
16308;SDS011;8263;48.880;9.276;2023-03-24T01:03:17;118.28;;;110.38;;
16308;SDS011;8263;48.880;9.276;2023-03-24T01:05:50;118.45;;;110.50;;
16308;SDS011;8263;48.880;9.276;2023-03-24T01:08:18;116.07;;;108.32;;
16308;SDS011;8263;48.880;9.276;2023-03-24T01:10:45;114.47;;;106.85;;
16308;SDS011;8263;48.880;9.276;2023-03-24T01:13:17;118.45;;;110.47;;
16308;SDS011;8263;48.880;9.276;2023-03-24T01:15:45;115.88;;;108.18;;
16308;SDS011;8263;48.880;9.276;2023-03-24T01:18:12;117.30;;;109.43;;
16308;SDS011;8263;48.880;9.276;2023-03-24T01:20:39;117.35;;;109.50;;
16308;SDS011;8263;48.880;9.276;2023-03-24T01:23:09;116.50;;;108.68;;
16308;SDS011;8263;48.880;9.276;2023-03-24T01:25:37;115.35;;;107.68;;
16308;SDS011;8263;48.880;9.276;2023-03-24T01:28:04;118.32;;;110.43;;
16308;SDS011;8263;48.880;9.276;2023-03-24T01:30:30;118.18;;;110.28;;
16308;SDS011;8263;48.880;9.276;2023-03-24T01:32:58;116.78;;;108.88;;
16308;SDS011;8263;48.880;9.276;2023-03-24T01:35:25;119.07;;;110.97;;
16308;SDS011;8263;48.880;9.276;2023-03-24T01:37:52;119.07;;;111.07;;
16308;SDS011;8263;48.880;9.276;2023-03-24T01:40:19;116.85;;;109.00;;
16308;SDS011;8263;48.880;9.276;2023-03-24T01:42:46;117.90;;;109.97;;
16308;SDS011;8263;48.880;9.276;2023-03-24T01:47:59;117.57;;;109.68;;
16308;SDS011;8263;48.880;9.276;2023-03-24T01:50:26;120.15;;;112.05;;
16308;SDS011;8263;48.880;9.276;2023-03-24T01:52:54;120.22;;;111.93;;
16308;SDS011;8263;48.880;9.276;2023-03-24T01:55:20;116.82;;;109.03;;
16308;SDS011;8263;48.880;9.276;2023-03-24T01:57:48;118.88;;;110.68;;
16308;SDS011;8263;48.880;9.276;2023-03-24T02:00:17;118.93;;;110.55;;
16308;SDS011;8263;48.880;9.276;2023-03-24T02:02:45;118.32;;;110.40;;
16308;SDS011;8263;48.880;9.276;2023-03-24T02:05:15;115.30;;;107.63;;
16308;SDS011;8263;48.880;9.276;2023-03-24T02:07:44;118.43;;;110.43;;
16308;SDS011;8263;48.880;9.276;2023-03-24T02:10:13;118.25;;;110.30;;
16308;SDS011;8263;48.880;9.276;2023-03-24T02:12:40;118.60;;;110.40;;
16308;SDS011;8263;48.880;9.276;2023-03-24T02:15:07;117.72;;;109.82;;
16308;SDS011;8263;48.880;9.276;2023-03-24T02:17:41;117.70;;;109.80;;
16308;SDS011;8263;48.880;9.276;2023-03-24T02:26:04;119.70;;;111.60;;
16308;SDS011;8263;48.880;9.276;2023-03-24T02:28:40;120.90;;;112.63;;
16308;SDS011;8263;48.880;9.276;2023-03-24T02:31:15;120.57;;;112.47;;
16308;SDS011;8263;48.880;9.276;2023-03-24T02:36:42;119.10;;;111.10;;
16308;SDS011;8263;48.880;9.276;2023-03-24T02:41:59;117.22;;;109.43;;
16308;SDS011;8263;48.880;9.276;2023-03-24T02:44:31;120.32;;;112.22;;
16308;SDS011;8263;48.880;9.276;2023-03-24T02:47:00;118.55;;;110.55;;
16308;SDS011;8263;48.880;9.276;2023-03-24T02:49:29;120.18;;;112.13;;
16308;SDS011;8263;48.880;9.276;2023-03-24T02:51:57;118.85;;;110.85;;
16308;SDS011;8263;48.880;9.276;2023-03-24T02:54:28;120.43;;;112.15;;
16308;SDS011;8263;48.880;9.276;2023-03-24T02:56:59;119.18;;;111.18;;
16308;SDS011;8263;48.880;9.276;2023-03-24T02:59:31;117.85;;;109.97;;
16308;SDS011;8263;48.880;9.276;2023-03-24T03:02:01;120.45;;;112.25;;
16308;SDS011;8263;48.880;9.276;2023-03-24T03:04:29;119.70;;;111.70;;
16308;SDS011;8263;48.880;9.276;2023-03-24T03:06:58;118.90;;;110.85;;
16308;SDS011;8263;48.880;9.276;2023-03-24T03:09:30;119.32;;;111.30;;
16308;SDS011;8263;48.880;9.276;2023-03-24T03:11:59;120.22;;;112.13;;
16308;SDS011;8263;48.880;9.276;2023-03-24T03:14:27;119.80;;;111.78;;
16308;SDS011;8263;48.880;9.276;2023-03-24T03:16:54;119.65;;;111.53;;
16308;SDS011;8263;48.880;9.276;2023-03-24T03:19:24;119.88;;;111.75;;
16308;SDS011;8263;48.880;9.276;2023-03-24T03:21:54;118.90;;;110.93;;
16308;SDS011;8263;48.880;9.276;2023-03-24T03:24:22;120.85;;;112.65;;
16308;SDS011;8263;48.880;9.276;2023-03-24T03:26:52;119.03;;;111.03;;
16308;SDS011;8263;48.880;9.276;2023-03-24T03:29:23;118.32;;;110.43;;
16308;SDS011;8263;48.880;9.276;2023-03-24T03:31:52;119.80;;;111.80;;
16308;SDS011;8263;48.880;9.276;2023-03-24T03:34:25;117.53;;;109.70;;
16308;SDS011;8263;48.880;9.276;2023-03-24T03:36:54;117.93;;;110.03;;
16308;SDS011;8263;48.880;9.276;2023-03-24T03:39:23;118.13;;;110.18;;
16308;SDS011;8263;48.880;9.276;2023-03-24T03:41:52;119.93;;;111.60;;
16308;SDS011;8263;48.880;9.276;2023-03-24T03:44:19;118.88;;;110.93;;
16308;SDS011;8263;48.880;9.276;2023-03-24T03:46:47;119.85;;;111.75;;
16308;SDS011;8263;48.880;9.276;2023-03-24T03:49:13;118.57;;;110.63;;
16308;SDS011;8263;48.880;9.276;2023-03-24T03:51:40;119.45;;;111.45;;
16308;SDS011;8263;48.880;9.276;2023-03-24T03:54:07;119.53;;;111.38;;
16308;SDS011;8263;48.880;9.276;2023-03-24T03:56:35;118.82;;;110.85;;
16308;SDS011;8263;48.880;9.276;2023-03-24T03:59:03;118.50;;;110.55;;
16308;SDS011;8263;48.880;9.276;2023-03-24T04:01:30;118.03;;;110.10;;
16308;SDS011;8263;48.880;9.276;2023-03-24T04:04:16;117.70;;;109.78;;
16308;SDS011;8263;48.880;9.276;2023-03-24T04:06:52;121.07;;;112.97;;
16308;SDS011;8263;48.880;9.276;2023-03-24T04:09:24;121.10;;;112.90;;
16308;SDS011;8263;48.880;9.276;2023-03-24T04:12:00;119.13;;;111.13;;
16308;SDS011;8263;48.880;9.276;2023-03-24T04:14:37;118.57;;;110.68;;
16308;SDS011;8263;48.880;9.276;2023-03-24T04:17:08;116.57;;;108.80;;
16308;SDS011;8263;48.880;9.276;2023-03-24T04:19:42;118.78;;;110.78;;
16308;SDS011;8263;48.880;9.276;2023-03-24T04:22:15;120.28;;;112.15;;
16308;SDS011;8263;48.880;9.276;2023-03-24T04:24:45;120.18;;;112.07;;
16308;SDS011;8263;48.880;9.276;2023-03-24T04:27:18;120.88;;;112.68;;
16308;SDS011;8263;48.880;9.276;2023-03-24T04:29:52;118.57;;;110.65;;
16308;SDS011;8263;48.880;9.276;2023-03-24T04:32:20;119.45;;;111.45;;
16308;SDS011;8263;48.880;9.276;2023-03-24T04:34:52;119.47;;;111.40;;
16308;SDS011;8263;48.880;9.276;2023-03-24T04:37:26;120.28;;;112.20;;
16308;SDS011;8263;48.880;9.276;2023-03-24T04:39:56;120.00;;;111.95;;
16308;SDS011;8263;48.880;9.276;2023-03-24T04:42:24;119.20;;;111.20;;
16308;SDS011;8263;48.880;9.276;2023-03-24T04:44:52;120.25;;;112.15;;
16308;SDS011;8263;48.880;9.276;2023-03-24T04:47:23;119.90;;;111.78;;
16308;SDS011;8263;48.880;9.276;2023-03-24T04:49:52;119.28;;;111.20;;
16308;SDS011;8263;48.880;9.276;2023-03-24T04:52:25;119.55;;;111.45;;
16308;SDS011;8263;48.880;9.276;2023-03-24T04:54:52;118.68;;;110.68;;
16308;SDS011;8263;48.880;9.276;2023-03-24T04:57:18;120.30;;;112.20;;
16308;SDS011;8263;48.880;9.276;2023-03-24T04:59:45;120.03;;;112.03;;
16308;SDS011;8263;48.880;9.276;2023-03-24T05:02:11;117.50;;;109.63;;
16308;SDS011;8263;48.880;9.276;2023-03-24T05:04:38;117.72;;;109.80;;
16308;SDS011;8263;48.880;9.276;2023-03-24T05:07:05;118.63;;;110.63;;
16308;SDS011;8263;48.880;9.276;2023-03-24T05:09:32;119.30;;;111.28;;
16308;SDS011;8263;48.880;9.276;2023-03-24T05:11:58;120.03;;;111.93;;
16308;SDS011;8263;48.880;9.276;2023-03-24T05:14:25;119.15;;;111.15;;
16308;SDS011;8263;48.880;9.276;2023-03-24T05:16:52;118.85;;;110.88;;
16308;SDS011;8263;48.880;9.276;2023-03-24T05:19:18;118.50;;;110.60;;
16308;SDS011;8263;48.880;9.276;2023-03-24T05:21:45;118.30;;;110.38;;
16308;SDS011;8263;48.880;9.276;2023-03-24T05:24:13;119.53;;;111.50;;
16308;SDS011;8263;48.880;9.276;2023-03-24T05:26:39;117.13;;;109.32;;
16308;SDS011;8263;48.880;9.276;2023-03-24T05:29:06;119.03;;;111.00;;
16308;SDS011;8263;48.880;9.276;2023-03-24T05:31:32;118.25;;;110.35;;
16308;SDS011;8263;48.880;9.276;2023-03-24T05:33:59;120.15;;;112.05;;
16308;SDS011;8263;48.880;9.276;2023-03-24T05:36:25;119.75;;;111.65;;
16308;SDS011;8263;48.880;9.276;2023-03-24T05:38:52;119.32;;;111.32;;
16308;SDS011;8263;48.880;9.276;2023-03-24T05:41:19;120.03;;;111.93;;
16308;SDS011;8263;48.880;9.276;2023-03-24T05:43:46;119.57;;;111.38;;
16308;SDS011;8263;48.880;9.276;2023-03-24T05:46:12;120.20;;;111.70;;
16308;SDS011;8263;48.880;9.276;2023-03-24T05:48:38;119.85;;;111.75;;
16308;SDS011;8263;48.880;9.276;2023-03-24T05:51:05;120.43;;;112.28;;
16308;SDS011;8263;48.880;9.276;2023-03-24T05:53:32;118.70;;;110.72;;
16308;SDS011;8263;48.880;9.276;2023-03-24T05:55:58;119.43;;;111.32;;
16308;SDS011;8263;48.880;9.276;2023-03-24T05:58:26;119.32;;;111.22;;
16308;SDS011;8263;48.880;9.276;2023-03-24T06:00:52;119.53;;;111.38;;
16308;SDS011;8263;48.880;9.276;2023-03-24T06:03:21;118.93;;;110.95;;
16308;SDS011;8263;48.880;9.276;2023-03-24T06:05:47;117.30;;;109.40;;
16308;SDS011;8263;48.880;9.276;2023-03-24T06:08:15;120.25;;;112.15;;
16308;SDS011;8263;48.880;9.276;2023-03-24T06:10:42;118.65;;;110.72;;
16308;SDS011;8263;48.880;9.276;2023-03-24T06:13:09;118.93;;;110.82;;
16308;SDS011;8263;48.880;9.276;2023-03-24T06:15:37;119.57;;;111.47;;
16308;SDS011;8263;48.880;9.276;2023-03-24T06:18:06;118.43;;;110.45;;
16308;SDS011;8263;48.880;9.276;2023-03-24T06:20:33;118.93;;;110.95;;
16308;SDS011;8263;48.880;9.276;2023-03-24T06:23:00;118.18;;;110.28;;
16308;SDS011;8263;48.880;9.276;2023-03-24T06:25:26;118.20;;;110.25;;
16308;SDS011;8263;48.880;9.276;2023-03-24T06:27:54;120.03;;;111.93;;
16308;SDS011;8263;48.880;9.276;2023-03-24T06:30:20;117.80;;;109.90;;
16308;SDS011;8263;48.880;9.276;2023-03-24T06:32:48;118.60;;;110.63;;
16308;SDS011;8263;48.880;9.276;2023-03-24T06:35:15;119.00;;;110.95;;
16308;SDS011;8263;48.880;9.276;2023-03-24T06:37:42;118.80;;;110.80;;
16308;SDS011;8263;48.880;9.276;2023-03-24T06:40:09;115.30;;;107.60;;
16308;SDS011;8263;48.880;9.276;2023-03-24T06:42:37;117.82;;;109.93;;
16308;SDS011;8263;48.880;9.276;2023-03-24T06:45:04;121.50;;;113.15;;
16308;SDS011;8263;48.880;9.276;2023-03-24T06:47:31;119.95;;;111.85;;
16308;SDS011;8263;48.880;9.276;2023-03-24T06:49:59;118.07;;;110.10;;
16308;SDS011;8263;48.880;9.276;2023-03-24T06:52:25;117.38;;;109.53;;
16308;SDS011;8263;48.880;9.276;2023-03-24T06:54:52;117.50;;;109.63;;
16308;SDS011;8263;48.880;9.276;2023-03-24T06:57:19;117.60;;;109.75;;
16308;SDS011;8263;48.880;9.276;2023-03-24T06:59:45;116.90;;;109.07;;
16308;SDS011;8263;48.880;9.276;2023-03-24T07:02:12;120.40;;;112.30;;
16308;SDS011;8263;48.880;9.276;2023-03-24T07:04:39;120.57;;;112.28;;
16308;SDS011;8263;48.880;9.276;2023-03-24T07:07:08;116.53;;;108.70;;
16308;SDS011;8263;48.880;9.276;2023-03-24T07:09:34;116.80;;;108.97;;
16308;SDS011;8263;48.880;9.276;2023-03-24T07:12:01;118.53;;;110.63;;
16308;SDS011;8263;48.880;9.276;2023-03-24T07:14:27;119.20;;;111.15;;
16308;SDS011;8263;48.880;9.276;2023-03-24T07:16:54;119.13;;;111.05;;
16308;SDS011;8263;48.880;9.276;2023-03-24T07:19:20;116.65;;;108.82;;
16308;SDS011;8263;48.880;9.276;2023-03-24T07:21:47;118.07;;;110.10;;
16308;SDS011;8263;48.880;9.276;2023-03-24T07:24:16;119.88;;;111.85;;
16308;SDS011;8263;48.880;9.276;2023-03-24T07:26:42;117.32;;;109.43;;
16308;SDS011;8263;48.880;9.276;2023-03-24T07:29:09;118.40;;;110.50;;
16308;SDS011;8263;48.880;9.276;2023-03-24T07:31:36;119.30;;;111.30;;
16308;SDS011;8263;48.880;9.276;2023-03-24T07:34:02;118.72;;;110.75;;
16308;SDS011;8263;48.880;9.276;2023-03-24T07:36:29;119.70;;;111.70;;
16308;SDS011;8263;48.880;9.276;2023-03-24T07:38:55;119.30;;;111.30;;
16308;SDS011;8263;48.880;9.276;2023-03-24T07:41:23;118.32;;;110.43;;
16308;SDS011;8263;48.880;9.276;2023-03-24T07:43:51;117.35;;;109.45;;
16308;SDS011;8263;48.880;9.276;2023-03-24T07:46:18;119.57;;;111.53;;
16308;SDS011;8263;48.880;9.276;2023-03-24T07:48:44;119.93;;;111.88;;
16308;SDS011;8263;48.880;9.276;2023-03-24T07:51:11;119.57;;;111.47;;
16308;SDS011;8263;48.880;9.276;2023-03-24T07:53:37;118.88;;;110.90;;
16308;SDS011;8263;48.880;9.276;2023-03-24T07:56:04;119.00;;;111.03;;
16308;SDS011;8263;48.880;9.276;2023-03-24T07:58:32;118.63;;;110.63;;
16308;SDS011;8263;48.880;9.276;2023-03-24T08:00:58;119.30;;;111.28;;
16308;SDS011;8263;48.880;9.276;2023-03-24T08:03:25;119.15;;;111.18;;
16308;SDS011;8263;48.880;9.276;2023-03-24T08:05:51;120.05;;;111.97;;
16308;SDS011;8263;48.880;9.276;2023-03-24T08:08:19;119.85;;;111.75;;
16308;SDS011;8263;48.880;9.276;2023-03-24T08:10:46;119.00;;;111.00;;
16308;SDS011;8263;48.880;9.276;2023-03-24T08:13:14;120.15;;;111.95;;
16308;SDS011;8263;48.880;9.276;2023-03-24T08:15:42;118.22;;;110.32;;
16308;SDS011;8263;48.880;9.276;2023-03-24T08:18:08;119.70;;;111.65;;
16308;SDS011;8263;48.880;9.276;2023-03-24T08:20:35;119.07;;;111.07;;
16308;SDS011;8263;48.880;9.276;2023-03-24T08:23:01;118.53;;;110.57;;
16308;SDS011;8263;48.880;9.276;2023-03-24T08:25:28;117.25;;;109.45;;
16308;SDS011;8263;48.880;9.276;2023-03-24T08:27:55;119.90;;;111.80;;
16308;SDS011;8263;48.880;9.276;2023-03-24T08:30:22;118.40;;;110.40;;
16308;SDS011;8263;48.880;9.276;2023-03-24T08:32:52;116.50;;;108.70;;
16308;SDS011;8263;48.880;9.276;2023-03-24T08:35:19;119.65;;;111.57;;
16308;SDS011;8263;48.880;9.276;2023-03-24T08:37:46;118.63;;;110.25;;
16308;SDS011;8263;48.880;9.276;2023-03-24T08:40:13;118.13;;;110.22;;
16308;SDS011;8263;48.880;9.276;2023-03-24T08:42:43;117.72;;;109.47;;
16308;SDS011;8263;48.880;9.276;2023-03-24T08:45:10;114.93;;;107.30;;
16308;SDS011;8263;48.880;9.276;2023-03-24T08:47:37;116.25;;;108.07;;
16308;SDS011;8263;48.880;9.276;2023-03-24T08:50:05;117.25;;;109.45;;
16308;SDS011;8263;48.880;9.276;2023-03-24T08:52:32;115.30;;;107.57;;
16308;SDS011;8263;48.880;9.276;2023-03-24T08:54:58;117.75;;;109.85;;
16308;SDS011;8263;48.880;9.276;2023-03-24T08:57:25;116.60;;;108.80;;
16308;SDS011;8263;48.880;9.276;2023-03-24T08:59:52;116.47;;;108.70;;
16308;SDS011;8263;48.880;9.276;2023-03-24T09:02:18;117.20;;;109.40;;
16308;SDS011;8263;48.880;9.276;2023-03-24T09:04:45;116.60;;;108.82;;
16308;SDS011;8263;48.880;9.276;2023-03-24T09:07:15;118.30;;;110.32;;
16308;SDS011;8263;48.880;9.276;2023-03-24T09:09:41;114.90;;;107.20;;
16308;SDS011;8263;48.880;9.276;2023-03-24T09:12:08;118.32;;;110.43;;
16308;SDS011;8263;48.880;9.276;2023-03-24T09:14:34;118.72;;;110.82;;
16308;SDS011;8263;48.880;9.276;2023-03-24T09:17:01;116.97;;;109.18;;
16308;SDS011;8263;48.880;9.276;2023-03-24T09:19:27;116.93;;;109.13;;
16308;SDS011;8263;48.880;9.276;2023-03-24T09:21:56;115.85;;;108.15;;
16308;SDS011;8263;48.880;9.276;2023-03-24T09:24:24;116.18;;;108.40;;
16308;SDS011;8263;48.880;9.276;2023-03-24T09:26:50;116.43;;;108.65;;
16308;SDS011;8263;48.880;9.276;2023-03-24T09:29:16;115.82;;;108.05;;
16308;SDS011;8263;48.880;9.276;2023-03-24T09:31:43;116.78;;;108.97;;
16308;SDS011;8263;48.880;9.276;2023-03-24T09:34:10;115.40;;;107.70;;
16308;SDS011;8263;48.880;9.276;2023-03-24T09:36:36;116.43;;;108.65;;
16308;SDS011;8263;48.880;9.276;2023-03-24T09:39:02;117.22;;;109.43;;
16308;SDS011;8263;48.880;9.276;2023-03-24T09:41:30;115.63;;;107.90;;
16308;SDS011;8263;48.880;9.276;2023-03-24T09:43:58;116.35;;;108.55;;
16308;SDS011;8263;48.880;9.276;2023-03-24T09:46:26;118.35;;;110.45;;
16308;SDS011;8263;48.880;9.276;2023-03-24T09:48:54;116.45;;;108.72;;
16308;SDS011;8263;48.880;9.276;2023-03-24T09:51:21;117.80;;;109.95;;
16308;SDS011;8263;48.880;9.276;2023-03-24T09:53:49;117.35;;;109.55;;
16308;SDS011;8263;48.880;9.276;2023-03-24T09:56:17;116.15;;;108.35;;
16308;SDS011;8263;48.880;9.276;2023-03-24T09:58:47;114.47;;;106.88;;
16308;SDS011;8263;48.880;9.276;2023-03-24T10:01:15;115.05;;;107.43;;
16308;SDS011;8263;48.880;9.276;2023-03-24T10:03:42;117.93;;;110.07;;
16308;SDS011;8263;48.880;9.276;2023-03-24T10:06:09;117.72;;;109.68;;
16308;SDS011;8263;48.880;9.276;2023-03-24T10:08:39;117.03;;;109.22;;
16308;SDS011;8263;48.880;9.276;2023-03-24T10:11:06;115.13;;;107.47;;
16308;SDS011;8263;48.880;9.276;2023-03-24T10:13:39;116.97;;;109.18;;
16308;SDS011;8263;48.880;9.276;2023-03-24T10:16:11;115.93;;;108.15;;
16308;SDS011;8263;48.880;9.276;2023-03-24T10:18:41;117.00;;;109.18;;
16308;SDS011;8263;48.880;9.276;2023-03-24T10:21:13;115.85;;;108.07;;
16308;SDS011;8263;48.880;9.276;2023-03-24T10:23:42;115.50;;;107.80;;
16308;SDS011;8263;48.880;9.276;2023-03-24T10:26:14;113.60;;;106.10;;
16308;SDS011;8263;48.880;9.276;2023-03-24T10:28:43;116.90;;;109.13;;
16308;SDS011;8263;48.880;9.276;2023-03-24T10:31:12;113.82;;;106.30;;
16308;SDS011;8263;48.880;9.276;2023-03-24T10:33:40;113.63;;;106.13;;
16308;SDS011;8263;48.880;9.276;2023-03-24T10:36:08;115.40;;;107.50;;
16308;SDS011;8263;48.880;9.276;2023-03-24T10:38:36;115.70;;;108.00;;
16308;SDS011;8263;48.880;9.276;2023-03-24T10:41:02;115.25;;;107.65;;
16308;SDS011;8263;48.880;9.276;2023-03-24T10:43:29;114.65;;;107.05;;
16308;SDS011;8263;48.880;9.276;2023-03-24T10:45:57;115.03;;;107.43;;
16308;SDS011;8263;48.880;9.276;2023-03-24T10:48:39;113.32;;;105.82;;
16308;SDS011;8263;48.880;9.276;2023-03-24T10:51:09;113.93;;;106.32;;
16308;SDS011;8263;48.880;9.276;2023-03-24T10:53:38;111.40;;;104.07;;
16308;SDS011;8263;48.880;9.276;2023-03-24T10:56:05;114.70;;;107.10;;
16308;SDS011;8263;48.880;9.276;2023-03-24T10:58:34;114.82;;;107.22;;
16308;SDS011;8263;48.880;9.276;2023-03-24T11:01:01;115.65;;;108.03;;
16308;SDS011;8263;48.880;9.276;2023-03-24T11:03:29;113.97;;;106.43;;
16308;SDS011;8263;48.880;9.276;2023-03-24T11:05:58;113.70;;;106.20;;
16308;SDS011;8263;48.880;9.276;2023-03-24T11:08:26;111.90;;;104.55;;
16308;SDS011;8263;48.880;9.276;2023-03-24T11:10:52;113.35;;;105.85;;
16308;SDS011;8263;48.880;9.276;2023-03-24T11:13:19;113.38;;;105.88;;
16308;SDS011;8263;48.880;9.276;2023-03-24T11:15:52;112.80;;;105.40;;
16308;SDS011;8263;48.880;9.276;2023-03-24T11:18:18;112.03;;;104.65;;
16308;SDS011;8263;48.880;9.276;2023-03-24T11:20:46;113.20;;;105.78;;
16308;SDS011;8263;48.880;9.276;2023-03-24T11:23:18;113.00;;;105.53;;
16308;SDS011;8263;48.880;9.276;2023-03-24T11:25:46;114.20;;;106.65;;
16308;SDS011;8263;48.880;9.276;2023-03-24T11:28:17;112.78;;;105.38;;
16308;SDS011;8263;48.880;9.276;2023-03-24T11:30:46;112.63;;;105.22;;
16308;SDS011;8263;48.880;9.276;2023-03-24T11:33:17;111.25;;;103.95;;
16308;SDS011;8263;48.880;9.276;2023-03-24T11:35:44;112.65;;;105.00;;
16308;SDS011;8263;48.880;9.276;2023-03-24T11:38:14;110.93;;;103.65;;
16308;SDS011;8263;48.880;9.276;2023-03-24T11:40:46;111.10;;;103.80;;
16308;SDS011;8263;48.880;9.276;2023-03-24T11:43:22;112.00;;;104.60;;
16308;SDS011;8263;48.880;9.276;2023-03-24T11:45:51;111.18;;;103.88;;
16308;SDS011;8263;48.880;9.276;2023-03-24T11:48:23;111.03;;;103.72;;
16308;SDS011;8263;48.880;9.276;2023-03-24T11:50:51;110.35;;;103.13;;
16308;SDS011;8263;48.880;9.276;2023-03-24T11:53:18;111.00;;;103.70;;
16308;SDS011;8263;48.880;9.276;2023-03-24T11:55:49;110.80;;;103.55;;
16308;SDS011;8263;48.880;9.276;2023-03-24T11:58:19;110.63;;;103.40;;
16308;SDS011;8263;48.880;9.276;2023-03-24T12:00:53;109.88;;;102.68;;
16308;SDS011;8263;48.880;9.276;2023-03-24T12:03:31;109.82;;;102.63;;
16308;SDS011;8263;48.880;9.276;2023-03-24T12:06:05;109.32;;;102.20;;
16308;SDS011;8263;48.880;9.276;2023-03-24T12:08:39;107.72;;;100.70;;
16308;SDS011;8263;48.880;9.276;2023-03-24T12:11:10;110.07;;;102.88;;
16308;SDS011;8263;48.880;9.276;2023-03-24T12:13:40;112.38;;;104.97;;
16308;SDS011;8263;48.880;9.276;2023-03-24T12:16:10;110.43;;;103.22;;
16308;SDS011;8263;48.880;9.276;2023-03-24T12:18:52;111.35;;;104.05;;
16308;SDS011;8263;48.880;9.276;2023-03-24T12:21:22;108.63;;;101.53;;
16308;SDS011;8263;48.880;9.276;2023-03-24T12:23:55;110.35;;;103.15;;
16308;SDS011;8263;48.880;9.276;2023-03-24T12:26:24;108.43;;;101.32;;
16308;SDS011;8263;48.880;9.276;2023-03-24T12:28:56;110.38;;;102.57;;
16308;SDS011;8263;48.880;9.276;2023-03-24T12:31:36;109.53;;;102.35;;
16308;SDS011;8263;48.880;9.276;2023-03-24T12:34:09;110.82;;;103.57;;
16308;SDS011;8263;48.880;9.276;2023-03-24T12:36:42;107.40;;;100.40;;
16308;SDS011;8263;48.880;9.276;2023-03-24T12:39:10;109.28;;;102.10;;
16308;SDS011;8263;48.880;9.276;2023-03-24T12:41:47;110.60;;;103.40;;
16308;SDS011;8263;48.880;9.276;2023-03-24T12:44:22;109.55;;;102.38;;
16308;SDS011;8263;48.880;9.276;2023-03-24T12:46:51;109.47;;;102.35;;
16308;SDS011;8263;48.880;9.276;2023-03-24T12:49:25;109.57;;;102.43;;
16308;SDS011;8263;48.880;9.276;2023-03-24T12:52:00;109.45;;;102.32;;
16308;SDS011;8263;48.880;9.276;2023-03-24T12:54:33;109.22;;;102.13;;
16308;SDS011;8263;48.880;9.276;2023-03-24T12:57:02;109.15;;;101.90;;
16308;SDS011;8263;48.880;9.276;2023-03-24T12:59:31;109.50;;;102.38;;
16308;SDS011;8263;48.880;9.276;2023-03-24T13:02:01;110.82;;;103.57;;
16308;SDS011;8263;48.880;9.276;2023-03-24T13:04:29;110.32;;;103.13;;
16308;SDS011;8263;48.880;9.276;2023-03-24T13:06:58;107.15;;;100.15;;
16308;SDS011;8263;48.880;9.276;2023-03-24T13:09:30;109.35;;;102.22;;
16308;SDS011;8263;48.880;9.276;2023-03-24T13:12:00;111.28;;;103.97;;
16308;SDS011;8263;48.880;9.276;2023-03-24T13:14:31;107.63;;;100.63;;
16308;SDS011;8263;48.880;9.276;2023-03-24T13:17:02;109.28;;;102.15;;
16308;SDS011;8263;48.880;9.276;2023-03-24T13:19:30;108.63;;;101.53;;
16308;SDS011;8263;48.880;9.276;2023-03-24T13:21:58;109.43;;;102.30;;
16308;SDS011;8263;48.880;9.276;2023-03-24T13:24:25;111.38;;;104.07;;
16308;SDS011;8263;48.880;9.276;2023-03-24T13:26:54;111.75;;;104.43;;
16308;SDS011;8263;48.880;9.276;2023-03-24T13:29:33;110.10;;;102.90;;
16308;SDS011;8263;48.880;9.276;2023-03-24T13:32:05;109.40;;;102.20;;
16308;SDS011;8263;48.880;9.276;2023-03-24T13:34:34;112.55;;;105.15;;
16308;SDS011;8263;48.880;9.276;2023-03-24T13:37:02;112.20;;;104.80;;
16308;SDS011;8263;48.880;9.276;2023-03-24T13:39:30;115.03;;;107.43;;
16308;SDS011;8263;48.880;9.276;2023-03-24T13:41:58;112.57;;;105.18;;
16308;SDS011;8263;48.880;9.276;2023-03-24T13:44:27;111.57;;;104.28;;
16308;SDS011;8263;48.880;9.276;2023-03-24T13:47:02;112.82;;;105.43;;
16308;SDS011;8263;48.880;9.276;2023-03-24T13:49:30;113.03;;;105.60;;
16308;SDS011;8263;48.880;9.276;2023-03-24T13:51:57;113.35;;;105.88;;
16308;SDS011;8263;48.880;9.276;2023-03-24T13:54:27;114.20;;;106.70;;
16308;SDS011;8263;48.880;9.276;2023-03-24T13:56:54;114.68;;;106.88;;
16308;SDS011;8263;48.880;9.276;2023-03-24T13:59:26;113.90;;;106.40;;
16308;SDS011;8263;48.880;9.276;2023-03-24T14:02:16;115.95;;;108.25;;
16308;SDS011;8263;48.880;9.276;2023-03-24T14:04:43;114.22;;;106.68;;
16308;SDS011;8263;48.880;9.276;2023-03-24T14:07:30;114.70;;;107.10;;
16308;SDS011;8263;48.880;9.276;2023-03-24T14:09:57;116.10;;;108.40;;
16308;SDS011;8263;48.880;9.276;2023-03-24T14:12:23;113.43;;;105.93;;
16308;SDS011;8263;48.880;9.276;2023-03-24T14:17:40;114.35;;;106.80;;
16308;SDS011;8263;48.880;9.276;2023-03-24T14:20:11;112.60;;;105.18;;
16308;SDS011;8263;48.880;9.276;2023-03-24T14:22:39;113.55;;;106.05;;
16308;SDS011;8263;48.880;9.276;2023-03-24T14:25:16;115.15;;;107.55;;
16308;SDS011;8263;48.880;9.276;2023-03-24T14:27:46;114.55;;;106.97;;
16308;SDS011;8263;48.880;9.276;2023-03-24T14:30:14;113.38;;;105.88;;
16308;SDS011;8263;48.880;9.276;2023-03-24T14:32:46;115.50;;;107.82;;
16308;SDS011;8263;48.880;9.276;2023-03-24T14:35:28;113.57;;;106.03;;